createdAt,value
2018-04-12T05:39:50.606Z,20.5
2018-04-12T05:40:40.955Z,20.6
2018-04-12T05:41:30.952Z,20.6
2018-04-12T05:42:20.840Z,20.6
2018-04-12T05:43:09.960Z,20.6
2018-04-12T05:44:00.889Z,20.5
2018-04-12T05:44:50.626Z,20.6
2018-04-12T05:45:40.821Z,20.6
2018-04-12T05:46:32.316Z,20.5
2018-04-12T05:47:21.709Z,20.6
2018-04-12T05:48:11.444Z,20.6
2018-04-12T05:49:01.783Z,20.6
2018-04-12T05:49:51.612Z,20.5
2018-04-12T05:50:41.388Z,20.6
2018-04-12T05:51:32.314Z,20.6
2018-04-12T05:52:20.900Z,20.6
2018-04-12T05:53:10.978Z,20.5
2018-04-12T05:54:01.043Z,20.6
2018-04-12T05:54:52.265Z,20.5
2018-04-12T05:55:41.800Z,20.6
2018-04-12T05:56:31.783Z,20.6
2018-04-12T05:57:22.503Z,20.6
2018-04-12T05:58:12.243Z,20.6
2018-04-12T05:59:01.610Z,20.6
2018-04-12T05:59:52.362Z,20.6
2018-04-12T06:00:42.422Z,20.6
2018-04-12T06:01:32.219Z,20.6
2018-04-12T06:02:22.872Z,20.6
2018-04-12T06:03:12.679Z,20.6
2018-04-12T06:04:03.198Z,20.6
2018-04-12T06:04:52.404Z,20.6
2018-04-12T06:05:42.507Z,20.6
2018-04-12T06:06:32.837Z,20.6
2018-04-12T06:07:23.125Z,20.6
2018-04-12T06:08:12.465Z,20.6
2018-04-12T06:09:02.751Z,20.6
2018-04-12T06:09:53.349Z,20.6
2018-04-12T06:10:43.721Z,20.6
2018-04-12T06:11:33.225Z,20.6
2018-04-12T06:12:23.552Z,20.6
2018-04-12T06:13:13.364Z,20.6
2018-04-12T06:14:03.737Z,20.6
2018-04-12T06:14:53.715Z,20.6
2018-04-12T06:15:42.959Z,20.6
2018-04-12T06:16:33.283Z,20.6
2018-04-12T06:17:24.222Z,20.6
2018-04-12T06:18:13.994Z,20.6
2018-04-12T06:19:04.064Z,20.6
2018-04-12T06:19:53.370Z,20.6
2018-04-12T06:20:43.634Z,20.6
2018-04-12T06:21:34.412Z,20.6
2018-04-12T06:22:24.288Z,20.6
2018-04-12T06:23:14.040Z,20.6
2018-04-12T06:24:04.129Z,20.6
2018-04-12T06:24:54.461Z,20.6
2018-04-12T06:25:44.238Z,20.6
2018-04-12T06:26:34.609Z,20.6
2018-04-12T06:27:24.971Z,20.6
2018-04-12T06:28:14.492Z,20.6
2018-04-12T06:29:04.233Z,20.6
2018-04-12T06:29:54.015Z,20.6
2018-04-12T06:30:44.957Z,20.6
2018-04-12T06:31:35.007Z,20.6
2018-04-12T06:32:24.807Z,20.6
2018-04-12T06:33:13.729Z,20.7
2018-04-12T06:34:05.229Z,20.8
2018-04-12T06:34:55.301Z,20.8
2018-04-12T06:35:44.479Z,20.9
2018-04-12T06:36:35.382Z,21
2018-04-12T06:37:24.345Z,21.1
2018-04-12T06:39:04.702Z,21.2
2018-04-12T06:39:55.919Z,21.2
2018-04-12T06:40:45.149Z,21.3
2018-04-12T06:41:36.035Z,21.3
2018-04-12T06:42:24.721Z,21.3
2018-04-12T06:43:14.795Z,21.3
2018-04-12T06:44:05.944Z,21.3
2018-04-12T06:44:55.501Z,21.3
2018-04-12T06:45:44.907Z,21.4
2018-04-12T06:46:36.107Z,21.4
2018-04-12T06:47:25.621Z,21.4
2018-04-12T06:48:15.737Z,21.4
2018-04-12T06:49:06.024Z,21.4
2018-04-12T06:49:56.402Z,21.4
2018-04-12T06:50:46.479Z,21.4
2018-04-12T06:51:36.229Z,21.4
2018-04-12T06:52:26.559Z,21.4
2018-04-12T06:53:15.472Z,21.4
2018-04-12T06:54:07.122Z,21.4
2018-04-12T06:54:55.878Z,21.4
2018-04-12T06:55:45.980Z,21.4
2018-04-12T06:56:36.058Z,21.4
2018-04-12T06:57:26.669Z,21.5
2018-04-12T06:58:17.265Z,21.5
2018-04-12T06:59:07.073Z,21.5
2018-04-12T06:59:56.843Z,21.5
2018-04-12T07:00:47.196Z,21.5
2018-04-12T07:01:36.405Z,21.5
2018-04-12T07:02:26.201Z,21.5
2018-04-12T07:03:17.095Z,21.6
2018-04-12T07:04:07.758Z,21.6
2018-04-12T07:04:56.935Z,21.5
2018-04-12T07:05:47.594Z,21.6
2018-04-12T07:06:37.922Z,21.6
2018-04-12T07:07:27.424Z,21.6
2018-04-12T07:08:17.744Z,21.6
2018-04-12T07:09:07.804Z,21.6
2018-04-12T07:09:57.615Z,21.6
2018-04-12T07:10:48.054Z,21.6
2018-04-12T07:11:37.534Z,21.6
2018-04-12T07:12:28.139Z,21.6
2018-04-12T07:13:16.782Z,21.6
2018-04-12T07:14:07.929Z,21.6
2018-04-12T07:14:58.052Z,21.7
2018-04-12T07:15:48.075Z,21.7
2018-04-12T07:16:38.384Z,21.6
2018-04-12T07:17:27.944Z,21.6
2018-04-12T07:18:17.856Z,21.6
2018-04-12T07:19:07.495Z,21.7
2018-04-12T07:19:58.370Z,21.7
2018-04-12T07:20:47.868Z,21.7
2018-04-12T07:21:37.383Z,21.7
2018-04-12T07:22:27.808Z,21.7
2018-04-12T07:23:18.093Z,21.7
2018-04-12T07:24:08.400Z,21.7
2018-04-12T07:24:57.205Z,21.7
2018-04-12T07:25:48.518Z,21.7
2018-04-12T07:26:39.144Z,21.7
2018-04-12T07:27:28.076Z,21.8
2018-04-12T07:28:19.010Z,21.8
2018-04-12T07:29:08.792Z,21.8
2018-04-12T07:29:59.423Z,21.8
2018-04-12T07:30:49.170Z,21.7
2018-04-12T07:31:39.791Z,21.8
2018-04-12T07:32:29.333Z,21.8
2018-04-12T07:33:19.658Z,21.8
2018-04-12T07:34:09.718Z,21.8
2018-04-12T07:34:59.221Z,21.8
2018-04-12T07:35:50.153Z,21.8
2018-04-12T07:36:39.922Z,21.8
2018-04-12T07:37:28.690Z,21.8
2018-04-12T07:38:19.231Z,21.8
2018-04-12T07:39:09.606Z,21.9
2018-04-12T07:40:00.462Z,21.9
2018-04-12T07:40:49.968Z,21.9
2018-04-12T07:41:40.101Z,21.9
2018-04-12T07:42:30.115Z,21.9
2018-04-12T07:43:20.204Z,21.8
2018-04-12T07:44:09.979Z,21.9
2018-04-12T07:45:00.849Z,21.8
2018-04-12T07:45:49.824Z,21.8
2018-04-12T07:46:40.457Z,21.8
2018-04-12T07:47:29.916Z,21.9
2018-04-12T07:48:20.528Z,21.9
2018-04-12T07:49:11.202Z,21.9
2018-04-12T07:50:00.690Z,21.9
2018-04-12T07:50:48.844Z,21.9
2018-04-12T07:51:39.773Z,21.9
2018-04-12T07:52:31.187Z,21.9
2018-04-12T07:53:20.669Z,21.9
2018-04-12T07:54:10.455Z,21.9
2018-04-12T07:55:00.349Z,21.9
2018-04-12T07:55:51.403Z,21.9
2018-04-12T07:56:41.757Z,21.9
2018-04-12T07:57:31.505Z,21.9
2018-04-12T07:58:21.679Z,21.9
2018-04-12T07:59:11.110Z,21.9
2018-04-12T08:00:01.205Z,22
2018-04-12T08:00:51.787Z,21.9
2018-04-12T08:01:41.591Z,22
2018-04-12T08:02:31.945Z,21.9
2018-04-12T08:03:21.427Z,21.9
2018-04-12T08:04:10.945Z,22
2018-04-12T08:05:01.870Z,21.9
2018-04-12T08:05:52.247Z,21.9
2018-04-12T08:06:41.687Z,22
2018-04-12T08:07:32.007Z,22
2018-04-12T08:08:22.095Z,22
2018-04-12T08:09:12.019Z,22
2018-04-12T08:10:02.214Z,21.9
2018-04-12T08:10:52.245Z,22
2018-04-12T08:11:42.674Z,22.1
2018-04-12T08:12:32.479Z,22
2018-04-12T08:13:22.499Z,21.9
2018-04-12T08:14:13.074Z,22
2018-04-12T08:15:02.874Z,22
2018-04-12T08:15:52.917Z,21.9
2018-04-12T08:16:42.723Z,22
2018-04-12T08:17:33.337Z,22
2018-04-12T08:18:23.358Z,22
2018-04-12T08:19:12.613Z,21.9
2018-04-12T08:20:03.020Z,22
2018-04-12T08:20:53.044Z,22
2018-04-12T08:21:42.092Z,22.1
2018-04-12T08:22:32.648Z,22
2018-04-12T08:23:23.560Z,22.1
2018-04-12T08:24:13.002Z,22
2018-04-12T08:25:03.639Z,22
2018-04-12T08:25:53.451Z,22
2018-04-12T08:26:43.335Z,22.1
2018-04-12T08:27:33.670Z,22
2018-04-12T08:28:22.861Z,22
2018-04-12T08:29:13.976Z,22
2018-04-12T08:30:04.030Z,21.9
2018-04-12T08:30:54.103Z,22
2018-04-12T08:31:44.152Z,21.9
2018-04-12T08:32:33.680Z,21.9
2018-04-12T08:33:24.039Z,21.9
2018-04-12T08:34:13.796Z,21.9
2018-04-12T08:35:03.833Z,21.9
2018-04-12T08:35:54.486Z,21.9
2018-04-12T08:36:44.276Z,21.9
2018-04-12T08:37:34.372Z,22
2018-04-12T08:38:23.570Z,22
2018-04-12T08:39:14.739Z,21.9
2018-04-12T08:40:04.843Z,22
2018-04-12T08:40:54.586Z,21.9
2018-04-12T08:41:44.162Z,22
2018-04-12T08:42:35.064Z,21.9
2018-04-12T08:43:24.822Z,21.9
2018-04-12T08:44:14.874Z,21.9
2018-04-12T08:45:04.696Z,21.9
2018-04-12T08:45:54.819Z,21.9
2018-04-12T08:46:44.469Z,21.8
2018-04-12T08:47:34.293Z,21.8
2018-04-12T08:48:25.483Z,21.8
2018-04-12T08:49:15.290Z,21.8
2018-04-12T08:50:05.901Z,21.8
2018-04-12T08:50:55.377Z,21.8
2018-04-12T08:51:45.158Z,21.9
2018-04-12T08:52:35.360Z,21.9
2018-04-12T08:53:24.547Z,21.8
2018-04-12T08:54:15.617Z,21.8
2018-04-12T08:55:05.977Z,21.8
2018-04-12T08:55:56.583Z,21.8
2018-04-12T08:56:45.576Z,21.8
2018-04-12T08:57:35.357Z,21.8
2018-04-12T08:58:26.196Z,21.9
2018-04-12T08:59:15.743Z,21.8
2018-04-12T09:00:05.629Z,21.9
2018-04-12T09:00:56.168Z,21.8
2018-04-12T09:01:45.367Z,21.8
2018-04-12T09:02:36.044Z,21.8
2018-04-12T09:03:26.342Z,21.8
2018-04-12T09:04:15.878Z,21.8
2018-04-12T09:05:07.089Z,21.8
2018-04-12T09:05:56.330Z,21.8
2018-04-12T09:06:46.998Z,21.9
2018-04-12T09:07:36.999Z,21.8
2018-04-12T09:08:26.784Z,21.8
2018-04-12T09:09:16.799Z,21.8
2018-04-12T09:10:06.893Z,21.9
2018-04-12T09:10:56.092Z,21.9
2018-04-12T09:11:47.570Z,21.9
2018-04-12T09:12:37.103Z,21.9
2018-04-12T09:13:27.145Z,21.8
2018-04-12T09:14:17.773Z,21.9
2018-04-12T09:15:07.268Z,21.9
2018-04-12T09:15:57.382Z,21.8
2018-04-12T09:16:47.128Z,21.9
2018-04-12T09:17:37.742Z,21.9
2018-04-12T09:18:28.095Z,21.8
2018-04-12T09:19:17.428Z,21.9
2018-04-12T09:20:07.107Z,21.9
2018-04-12T09:20:58.031Z,21.9
2018-04-12T09:21:47.213Z,21.9
2018-04-12T09:22:38.043Z,21.9
2018-04-12T09:23:28.127Z,21.9
2018-04-12T09:24:18.273Z,21.9
2018-04-12T09:25:07.771Z,21.9
2018-04-12T09:25:57.882Z,21.9
2018-04-12T09:26:47.841Z,21.9
2018-04-12T09:27:37.936Z,21.9
2018-04-12T09:28:28.574Z,21.9
2018-04-12T09:29:18.408Z,21.8
2018-04-12T09:30:08.418Z,21.8
2018-04-12T09:30:58.751Z,21.8
2018-04-12T09:31:48.022Z,21.8
2018-04-12T09:32:38.581Z,21.8
2018-04-12T09:33:28.559Z,21.8
2018-04-12T09:34:19.047Z,21.8
2018-04-12T09:35:08.802Z,21.8
2018-04-12T09:35:58.024Z,21.8
2018-04-12T09:36:48.672Z,21.8
2018-04-12T09:37:39.005Z,21.8
2018-04-12T09:38:29.336Z,21.8
2018-04-12T09:39:18.026Z,21.8
2018-04-12T09:40:08.439Z,21.8
2018-04-12T09:40:59.289Z,21.8
2018-04-12T09:41:49.059Z,21.8
2018-04-12T09:42:38.595Z,21.8
2018-04-12T09:43:29.739Z,21.8
2018-04-12T09:44:19.567Z,21.9
2018-04-12T09:45:10.174Z,21.8
2018-04-12T09:45:59.984Z,21.8
2018-04-12T09:46:49.731Z,21.8
2018-04-12T09:47:39.803Z,21.9
2018-04-12T09:48:29.034Z,21.8
2018-04-12T09:49:19.837Z,21.8
2018-04-12T09:50:10.270Z,21.8
2018-04-12T09:51:00.343Z,21.8
2018-04-12T09:51:50.101Z,21.8
2018-04-12T09:52:39.904Z,21.8
2018-04-12T09:53:30.813Z,21.8
2018-04-12T09:54:20.310Z,21.8
2018-04-12T09:55:10.671Z,21.8
2018-04-12T09:56:00.700Z,21.8
2018-04-12T09:56:50.479Z,21.9
2018-04-12T09:57:40.875Z,21.8
2018-04-12T09:58:30.334Z,21.9
2018-04-12T09:59:21.268Z,21.8
2018-04-12T10:00:11.953Z,21.8
2018-04-12T10:01:01.144Z,21.9
2018-04-12T10:01:50.310Z,21.8
2018-04-12T10:02:40.432Z,21.9
2018-04-12T10:03:30.747Z,21.9
2018-04-12T10:04:21.679Z,21.9
2018-04-12T10:05:10.640Z,21.9
2018-04-12T10:06:00.646Z,21.9
2018-04-12T10:06:51.871Z,21.9
2018-04-12T10:07:41.111Z,21.9
2018-04-12T10:08:31.482Z,21.9
2018-04-12T10:09:20.919Z,21.9
2018-04-12T10:10:11.816Z,21.9
2018-04-12T10:11:01.631Z,21.9
2018-04-12T10:11:51.401Z,21.9
2018-04-12T10:12:41.202Z,21.9
2018-04-12T10:13:32.435Z,21.9
2018-04-12T10:14:21.144Z,21.9
2018-04-12T10:15:12.448Z,21.9
2018-04-12T10:16:02.000Z,21.9
2018-04-12T10:16:52.043Z,21.9
2018-04-12T10:17:42.126Z,21.9
2018-04-12T10:18:32.224Z,21.9
2018-04-12T10:19:22.529Z,21.9
2018-04-12T10:20:12.567Z,21.9
2018-04-12T10:21:02.430Z,21.9
2018-04-12T10:21:52.748Z,21.9
2018-04-12T10:22:42.811Z,21.9
2018-04-12T10:23:32.384Z,21.9
2018-04-12T10:24:22.957Z,21.9
2018-04-12T10:25:12.693Z,21.9
2018-04-12T10:26:03.066Z,21.9
2018-04-12T10:26:52.802Z,21.9
2018-04-12T10:27:42.372Z,21.9
2018-04-12T10:28:32.764Z,21.9
2018-04-12T10:29:23.596Z,21.9
2018-04-12T10:30:12.825Z,21.9
2018-04-12T10:31:03.167Z,22
2018-04-12T10:31:52.944Z,22
2018-04-12T10:32:43.308Z,21.9
2018-04-12T10:33:33.080Z,21.9
2018-04-12T10:34:23.144Z,22
2018-04-12T10:35:13.555Z,21.9
2018-04-12T10:36:03.567Z,22
2018-04-12T10:36:53.321Z,22
2018-04-12T10:37:43.125Z,22
2018-04-12T10:38:34.061Z,21.9
2018-04-12T10:39:23.981Z,21.9
2018-04-12T10:40:13.590Z,22
2018-04-12T10:41:03.704Z,22
2018-04-12T10:41:54.498Z,22
2018-04-12T10:42:43.217Z,22.1
2018-04-12T10:43:33.877Z,22.1
2018-04-12T10:44:25.097Z,22
2018-04-12T10:45:14.850Z,22.1
2018-04-12T10:46:04.617Z,22
2018-04-12T10:46:54.197Z,22.1
2018-04-12T10:47:44.226Z,22
2018-04-12T10:48:34.505Z,22.1
2018-04-12T10:49:24.628Z,22.1
2018-04-12T10:50:14.106Z,22.1
2018-04-12T10:51:05.011Z,22.1
2018-04-12T10:51:55.240Z,22.1
2018-04-12T10:52:44.605Z,22.1
2018-04-12T10:53:35.183Z,22.1
2018-04-12T10:54:25.289Z,22.1
2018-04-12T10:55:14.785Z,22.1
2018-04-12T10:56:05.124Z,22.1
2018-04-12T10:56:54.900Z,22.1
2018-04-12T10:57:45.894Z,22.1
2018-04-12T10:58:35.624Z,22.1
2018-04-12T10:59:25.319Z,22.1
2018-04-12T11:00:16.056Z,22.2
2018-04-12T11:01:05.777Z,22.2
2018-04-12T11:01:55.600Z,22.2
2018-04-12T11:02:45.920Z,22.1
2018-04-12T11:03:35.994Z,22.2
2018-04-12T11:04:25.497Z,22.2
2018-04-12T11:05:15.022Z,22.2
2018-04-12T11:06:05.084Z,22.2
2018-04-12T11:06:55.954Z,22.3
2018-04-12T11:07:45.508Z,22.3
2018-04-12T11:08:35.576Z,22.3
2018-04-12T11:09:24.999Z,22.3
2018-04-12T11:10:15.959Z,22.3
2018-04-12T11:11:06.324Z,22.3
2018-04-12T11:11:56.627Z,22.3
2018-04-12T11:12:45.895Z,22.3
2018-04-12T11:13:36.534Z,22.4
2018-04-12T11:14:25.993Z,22.4
2018-04-12T11:15:16.077Z,22.4
2018-04-12T11:16:06.736Z,22.4
2018-04-12T11:16:56.532Z,22.4
2018-04-12T11:17:47.092Z,22.4
2018-04-12T11:18:38.466Z,22.4
2018-04-12T11:19:26.943Z,22.4
2018-04-12T11:20:17.269Z,22.4
2018-04-12T11:21:07.363Z,22.4
2018-04-12T11:21:57.174Z,22.5
2018-04-12T11:22:47.490Z,22.6
2018-04-12T11:23:37.083Z,22.6
2018-04-12T11:24:28.013Z,22.6
2018-04-12T11:25:18.140Z,22.6
2018-04-12T11:26:07.485Z,22.6
2018-04-12T11:26:57.068Z,22.6
2018-04-12T11:27:48.188Z,22.6
2018-04-12T11:28:37.424Z,22.6
2018-04-12T11:29:28.379Z,22.6
2018-04-12T11:30:18.109Z,22.7
2018-04-12T11:31:07.880Z,22.8
2018-04-12T11:31:58.469Z,22.7
2018-04-12T11:32:47.722Z,22.7
2018-04-12T11:33:37.181Z,22.6
2018-04-12T11:34:28.371Z,22.6
2018-04-12T11:35:18.178Z,22.6
2018-04-12T11:36:08.260Z,22.6
2018-04-12T11:36:57.785Z,22.6
2018-04-12T11:37:48.377Z,22.6
2018-04-12T11:38:38.722Z,22.6
2018-04-12T11:39:28.396Z,22.6
2018-04-12T11:40:18.537Z,22.6
2018-04-12T11:41:08.931Z,22.6
2018-04-12T11:41:57.849Z,22.8
2018-04-12T11:42:49.192Z,22.7
2018-04-12T11:43:39.104Z,22.7
2018-04-12T11:44:29.158Z,22.8
2018-04-12T11:45:19.253Z,22.8
2018-04-12T11:46:08.839Z,22.8
2018-04-12T11:46:59.449Z,22.9
2018-04-12T11:47:49.683Z,22.9
2018-04-12T11:48:38.471Z,23
2018-04-12T11:49:29.041Z,23
2018-04-12T11:50:19.334Z,23.1
2018-04-12T11:51:09.676Z,23.1
2018-04-12T11:51:59.757Z,23.1
2018-04-12T11:52:49.293Z,23.1
2018-04-12T11:53:39.068Z,23
2018-04-12T11:54:29.122Z,22.9
2018-04-12T11:55:19.571Z,22.9
2018-04-12T11:56:08.956Z,23
2018-04-12T11:56:58.920Z,22.9
2018-04-12T11:57:49.134Z,22.9
2018-04-12T11:58:39.824Z,23
2018-04-12T11:59:28.640Z,23
2018-04-12T12:00:19.880Z,23
2018-04-12T12:01:08.769Z,23
2018-04-12T12:01:59.041Z,23
2018-04-12T12:02:48.253Z,22.9
2018-04-12T12:03:40.801Z,22.9
2018-04-12T12:04:29.433Z,22.9
2018-04-12T12:05:18.743Z,23
2018-04-12T12:06:10.864Z,22.8
2018-04-12T12:07:01.296Z,22.8
2018-04-12T12:07:49.678Z,22.8
2018-04-12T12:08:40.808Z,22.8
2018-04-12T12:09:30.386Z,22.9
2018-04-12T12:10:20.626Z,22.9
2018-04-12T12:11:10.732Z,22.9
2018-04-12T12:12:00.764Z,22.9
2018-04-12T12:12:51.695Z,22.9
2018-04-12T12:13:40.898Z,22.8
2018-04-12T12:14:31.570Z,22.9
2018-04-12T12:15:21.020Z,22.9
2018-04-12T12:16:10.795Z,22.9
2018-04-12T12:17:01.694Z,22.9
2018-04-12T12:17:51.695Z,22.8
2018-04-12T12:18:41.281Z,22.9
2018-04-12T12:19:31.381Z,22.9
2018-04-12T12:20:21.969Z,22.8
2018-04-12T12:21:11.765Z,22.8
2018-04-12T12:22:02.123Z,22.9
2018-04-12T12:22:51.894Z,22.9
2018-04-12T12:23:42.783Z,22.9
2018-04-12T12:24:31.733Z,22.8
2018-04-12T12:25:22.328Z,22.9
2018-04-12T12:26:12.688Z,22.9
2018-04-12T12:27:02.472Z,22.8
2018-04-12T12:27:52.517Z,22.8
2018-04-12T12:28:42.087Z,22.8
2018-04-12T12:29:32.967Z,22.8
2018-04-12T12:30:22.204Z,22.8
2018-04-12T12:31:12.248Z,22.8
2018-04-12T12:32:02.884Z,22.7
2018-04-12T12:32:52.712Z,22.7
2018-04-12T12:33:43.000Z,22.8
2018-04-12T12:34:32.787Z,22.7
2018-04-12T12:35:23.122Z,22.8
2018-04-12T12:36:13.212Z,22.8
2018-04-12T12:37:03.023Z,22.7
2018-04-12T12:37:52.813Z,22.8
2018-04-12T12:38:42.664Z,22.8
2018-04-12T12:39:33.211Z,22.8
2018-04-12T12:40:22.686Z,22.8
2018-04-12T12:41:12.484Z,22.8
2018-04-12T12:42:02.886Z,22.8
2018-04-12T12:42:53.721Z,22.7
2018-04-12T12:43:44.125Z,22.8
2018-04-12T12:44:33.663Z,22.8
2018-04-12T12:45:23.638Z,22.7
2018-04-12T12:46:14.096Z,22.7
2018-04-12T12:47:04.320Z,22.8
2018-04-12T12:47:53.535Z,22.8
2018-04-12T12:48:43.062Z,22.8
2018-04-12T12:49:34.521Z,22.8
2018-04-12T12:50:24.325Z,22.7
2018-04-12T12:51:14.353Z,22.7
2018-04-12T12:52:04.743Z,22.7
2018-04-12T12:52:53.907Z,22.7
2018-04-12T12:53:43.718Z,22.7
2018-04-12T12:54:34.363Z,22.7
2018-04-12T12:55:23.873Z,22.6
2018-04-12T12:56:15.102Z,22.7
2018-04-12T12:57:03.968Z,22.7
2018-04-12T12:57:54.320Z,22.7
2018-04-12T12:58:45.215Z,22.8
2018-04-12T12:59:34.773Z,22.7
2018-04-12T13:00:25.082Z,22.8
2018-04-12T13:01:14.949Z,22.7
2018-04-12T13:02:04.928Z,22.6
2018-04-12T13:02:55.543Z,22.7
2018-04-12T13:03:45.339Z,22.6
2018-04-12T13:04:34.833Z,22.6
2018-04-12T13:05:25.221Z,22.6
2018-04-12T13:06:15.324Z,22.7
2018-04-12T13:07:05.331Z,22.6
2018-04-12T13:07:55.391Z,22.6
2018-04-12T13:08:45.423Z,22.6
2018-04-12T13:09:34.970Z,22.6
2018-04-12T13:10:25.299Z,22.6
2018-04-12T13:11:15.390Z,22.6
2018-04-12T13:12:05.464Z,22.6
2018-04-12T13:12:54.956Z,22.6
2018-04-12T13:13:45.879Z,22.6
2018-04-12T13:14:35.941Z,22.6
2018-04-12T13:15:26.558Z,22.6
2018-04-12T13:16:16.623Z,22.6
2018-04-12T13:17:05.828Z,22.6
2018-04-12T13:17:56.748Z,22.6
2018-04-12T13:18:46.526Z,22.6
2018-04-12T13:19:35.475Z,22.6
2018-04-12T13:20:26.103Z,22.6
2018-04-12T13:21:16.768Z,22.7
2018-04-12T13:22:06.267Z,22.7
2018-04-12T13:22:56.955Z,22.6
2018-04-12T13:23:46.341Z,22.6
2018-04-12T13:24:35.584Z,22.6
2018-04-12T13:25:26.455Z,22.6
2018-04-12T13:26:17.342Z,22.6
2018-04-12T13:27:06.833Z,22.6
2018-04-12T13:27:56.691Z,22.6
2018-04-12T13:28:47.024Z,22.6
2018-04-12T13:29:37.692Z,22.6
2018-04-12T13:30:27.144Z,22.6
2018-04-12T13:31:17.735Z,22.6
2018-04-12T13:32:06.364Z,22.6
2018-04-12T13:32:57.347Z,22.6
2018-04-12T13:33:47.096Z,22.6
2018-04-12T13:34:37.129Z,22.6
2018-04-12T13:35:27.816Z,22.6
2018-04-12T13:36:17.890Z,22.6
2018-04-12T13:37:08.221Z,22.6
2018-04-12T13:37:56.919Z,22.6
2018-04-12T13:38:47.529Z,22.6
2018-04-12T13:39:37.869Z,22.6
2018-04-12T13:40:27.347Z,22.6
2018-04-12T13:41:17.693Z,22.6
2018-04-12T13:42:08.030Z,22.6
2018-04-12T13:42:58.104Z,22.6
2018-04-12T13:43:48.471Z,22.6
2018-04-12T13:44:38.562Z,22.5
2018-04-12T13:45:27.514Z,22.6
2018-04-12T13:46:18.968Z,22.6
2018-04-12T13:47:08.459Z,22.6
2018-04-12T13:47:57.720Z,22.6
2018-04-12T13:48:48.271Z,22.5
2018-04-12T13:49:39.186Z,22.6
2018-04-12T13:50:28.966Z,22.6
2018-04-12T13:51:17.531Z,22.6
2018-04-12T13:52:07.735Z,22.6
2018-04-12T13:52:57.901Z,22.6
2018-04-12T13:53:48.559Z,22.6
2018-04-12T13:54:37.899Z,22.5
2018-04-12T13:55:27.855Z,22.6
2018-04-12T13:56:18.060Z,22.5
2018-04-12T13:57:08.174Z,22.5
2018-04-12T13:57:58.682Z,22.5
2018-04-12T13:58:47.604Z,22.6
2018-04-12T13:59:38.663Z,22.5
2018-04-12T14:00:29.184Z,22.5
2018-04-12T14:01:18.783Z,22.5
2018-04-12T14:02:07.645Z,22.5
2018-04-12T14:02:58.274Z,22.5
2018-04-12T14:03:50.265Z,22.5
2018-04-12T14:04:40.113Z,22.4
2018-04-12T14:05:29.664Z,22.4
2018-04-12T14:06:19.871Z,22.4
2018-04-12T14:07:10.543Z,22.5
2018-04-12T14:07:59.793Z,22.4
2018-04-12T14:08:50.152Z,22.4
2018-04-12T14:09:39.890Z,22.4
2018-04-12T14:10:30.489Z,22.4
2018-04-12T14:11:20.287Z,22.4
2018-04-12T14:12:10.632Z,22.4
2018-04-12T14:12:59.858Z,22.4
2018-04-12T14:13:50.803Z,22.3
2018-04-12T14:14:40.242Z,22.3
2018-04-12T14:15:31.189Z,22.3
2018-04-12T14:16:20.955Z,22.3
2018-04-12T14:17:10.303Z,22.3
2018-04-12T14:18:00.870Z,22.3
2018-04-12T14:18:51.498Z,22.3
2018-04-12T14:19:41.245Z,22.3
2018-04-12T14:20:31.039Z,22.4
2018-04-12T14:21:20.821Z,22.3
2018-04-12T14:22:10.833Z,22.3
2018-04-12T14:23:00.893Z,22.3
2018-04-12T14:23:51.793Z,22.3
2018-04-12T14:24:41.303Z,22.3
2018-04-12T14:25:31.496Z,22.3
2018-04-12T14:26:21.188Z,22.3
2018-04-12T14:27:11.606Z,22.3
2018-04-12T14:28:01.572Z,22.3
2018-04-12T14:28:50.783Z,22.3
2018-04-12T14:29:42.116Z,22.3
2018-04-12T14:30:32.333Z,22.3
2018-04-12T14:31:22.440Z,22.2
2018-04-12T14:32:11.326Z,22.3
2018-04-12T14:33:02.505Z,22.3
2018-04-12T14:33:52.033Z,22.3
2018-04-12T14:34:42.649Z,22.3
2018-04-12T14:35:32.448Z,22.3
2018-04-12T14:36:23.592Z,22.3
2018-04-12T14:37:12.561Z,22.2
2018-04-12T14:38:01.516Z,22.2
2018-04-12T14:38:52.111Z,22.2
2018-04-12T14:39:42.204Z,22.2
2018-04-12T14:40:32.549Z,22.2
2018-04-12T14:41:22.618Z,22.2
2018-04-12T14:42:12.690Z,22.2
2018-04-12T14:43:01.887Z,22.2
2018-04-12T14:43:52.472Z,22.2
2018-04-12T14:44:42.034Z,22.2
2018-04-12T14:45:32.350Z,22.2
2018-04-12T14:46:22.741Z,22.2
2018-04-12T14:47:13.631Z,22.2
2018-04-12T14:48:02.548Z,22.2
2018-04-12T14:48:52.320Z,22.2
2018-04-12T14:49:43.803Z,22.2
2018-04-12T14:50:33.576Z,22.2
2018-04-12T14:51:23.653Z,22.2
2018-04-12T14:52:13.465Z,22.2
2018-04-12T14:53:03.759Z,22.2
2018-04-12T14:53:52.977Z,22.2
2018-04-12T14:54:43.339Z,22.1
2018-04-12T14:55:33.387Z,22.2
2018-04-12T14:56:23.262Z,22.2
2018-04-12T14:57:13.890Z,22.2
2018-04-12T14:58:03.307Z,22.2
2018-04-12T14:58:53.374Z,22.1
2018-04-12T14:59:43.750Z,22.1
2018-04-12T15:00:34.590Z,22.1
2018-04-12T15:01:24.092Z,22.1
2018-04-12T15:02:14.477Z,22.1
2018-04-12T15:03:03.965Z,22.1
2018-04-12T15:03:53.795Z,22.1
2018-04-12T15:04:43.967Z,22.1
2018-04-12T15:05:34.434Z,22.2
2018-04-12T15:06:25.170Z,22.1
2018-04-12T15:07:14.295Z,22.1
2018-04-12T15:08:05.239Z,22.1
2018-04-12T15:08:54.445Z,22.1
2018-04-12T15:09:44.247Z,22.1
2018-04-12T15:10:35.119Z,22.1
2018-04-12T15:11:24.380Z,22.1
2018-04-12T15:12:14.200Z,22.2
2018-04-12T15:13:05.830Z,22.1
2018-04-12T15:13:55.130Z,22.2
2018-04-12T15:14:44.301Z,22.2
2018-04-12T15:15:34.359Z,22.2
2018-04-12T15:16:24.572Z,22.2
2018-04-12T15:17:15.077Z,22.2
2018-04-12T15:18:04.587Z,22.2
2018-04-12T15:18:55.352Z,22.2
2018-04-12T15:19:45.790Z,22.2
2018-04-12T15:20:35.354Z,22.2
2018-04-12T15:21:25.404Z,22.2
2018-04-12T15:22:15.287Z,22.1
2018-04-12T15:23:06.426Z,22.2
2018-04-12T15:23:55.293Z,22.1
2018-04-12T15:24:45.973Z,22.1
2018-04-12T15:25:36.025Z,22.1
2018-04-12T15:26:26.273Z,22.1
2018-04-12T15:27:15.651Z,22.1
2018-04-12T15:28:06.491Z,22.1
2018-04-12T15:28:55.735Z,22.1
2018-04-12T15:29:45.730Z,22.1
2018-04-12T15:30:36.078Z,22.1
2018-04-12T15:31:25.580Z,22.1
2018-04-12T15:32:17.357Z,22.1
2018-04-12T15:33:07.148Z,22.2
2018-04-12T15:33:56.933Z,22.2
2018-04-12T15:34:46.700Z,22.2
2018-04-12T15:35:36.752Z,22.2
2018-04-12T15:36:25.938Z,22.2
2018-04-12T15:37:16.373Z,22.3
2018-04-12T15:38:06.935Z,22.2
2018-04-12T15:38:57.374Z,22.3
2018-04-12T15:39:46.890Z,22.2
2018-04-12T15:40:37.688Z,22.2
2018-04-12T15:41:27.738Z,22.2
2018-04-12T15:42:17.242Z,22.2
2018-04-12T15:43:07.310Z,22.2
2018-04-12T15:43:57.406Z,22.2
2018-04-12T15:44:46.868Z,22.2
2018-04-12T15:45:38.300Z,22.2
2018-04-12T15:46:27.267Z,22.1
2018-04-12T15:47:17.629Z,22.1
2018-04-12T15:48:07.965Z,22.1
2018-04-12T15:48:57.985Z,22.1
2018-04-12T15:49:48.354Z,22.1
2018-04-12T15:50:37.908Z,22.1
2018-04-12T15:51:27.679Z,22.1
2018-04-12T15:52:17.717Z,22.1
2018-04-12T15:53:07.322Z,22.1
2018-04-12T15:53:58.192Z,22.1
2018-04-12T15:54:48.191Z,22.1
2018-04-12T15:55:37.831Z,22.1
2018-04-12T15:56:28.054Z,22.1
2018-04-12T15:57:18.127Z,22.1
2018-04-12T15:58:08.503Z,22.1
2018-04-12T15:58:57.404Z,22.1
2018-04-12T15:59:48.851Z,22.1
2018-04-12T16:00:38.464Z,22.1
2018-04-12T16:01:28.632Z,22.1
2018-04-12T16:02:18.777Z,22.1
2018-04-12T16:03:09.191Z,22.1
2018-04-12T16:03:58.877Z,22.1
2018-04-12T16:04:48.914Z,22.1
2018-04-12T16:05:39.313Z,22.1
2018-04-12T16:06:29.392Z,22.1
2018-04-12T16:07:19.494Z,22.1
2018-04-12T16:08:08.473Z,22.1
2018-04-12T16:08:59.543Z,22
2018-04-12T16:09:49.336Z,22
2018-04-12T16:10:39.416Z,22
2018-04-12T16:11:30.030Z,22
2018-04-12T16:12:19.553Z,22
2018-04-12T16:13:10.160Z,22
2018-04-12T16:14:00.108Z,22.1
2018-04-12T16:14:50.005Z,22.1
2018-04-12T16:15:39.513Z,22.1
2018-04-12T16:16:29.837Z,22.1
2018-04-12T16:17:19.658Z,22.1
2018-04-12T16:18:09.992Z,22.1
2018-04-12T16:19:00.318Z,22.1
2018-04-12T16:19:50.444Z,22.1
2018-04-12T16:20:39.882Z,22.1
2018-04-12T16:21:30.575Z,22.1
2018-04-12T16:22:20.016Z,22.1
2018-04-12T16:23:10.391Z,22.1
2018-04-12T16:24:00.557Z,22.1
2018-04-12T16:24:50.471Z,22.1
2018-04-12T16:25:41.123Z,22.1
2018-04-12T16:26:30.363Z,22
2018-04-12T16:27:20.140Z,22.1
2018-04-12T16:28:10.766Z,22
2018-04-12T16:29:00.278Z,22
2018-04-12T16:29:51.180Z,22
2018-04-12T16:30:40.660Z,22
2018-04-12T16:31:30.731Z,22
2018-04-12T16:32:20.810Z,21.9
2018-04-12T16:33:11.697Z,21.9
2018-04-12T16:34:01.195Z,21.9
2018-04-12T16:34:51.565Z,21.9
2018-04-12T16:35:41.662Z,21.9
2018-04-12T16:36:31.443Z,21.9
2018-04-12T16:37:21.425Z,21.9
2018-04-12T16:38:11.209Z,21.9
2018-04-12T16:39:02.385Z,21.9
2018-04-12T16:39:52.167Z,21.9
2018-04-12T16:40:41.442Z,22
2018-04-12T16:41:31.276Z,22
2018-04-12T16:42:21.524Z,22
2018-04-12T16:43:11.875Z,22
2018-04-12T16:44:02.292Z,21.9
2018-04-12T16:44:52.002Z,22
2018-04-12T16:45:42.109Z,22
2018-04-12T16:46:32.409Z,22
2018-04-12T16:47:21.071Z,21.9
2018-04-12T16:48:12.031Z,21.9
2018-04-12T16:49:02.337Z,21.9
2018-04-12T16:49:52.381Z,21.9
2018-04-12T16:50:42.169Z,22